Time;durP1;ratioP1;P1;durP2;ratioP2;P2;SDS_P1;SDS_P2;PMS_P1;PMS_P2;Temp;Humidity;BMP_temperature;BMP_pressure;BME280_temperature;BME280_humidity;BME280_pressure;Samples;Min_cycle;Max_cycle;Signal;HPM_P1;HPM_P2
2024/01/06 00:01:16;;;;;;;5.53;2.60;;;;;;;9.82;51.60;99115.28;4853242;29;20041;-94
2024/01/06 00:03:41;;;;;;;;;;;;;;;9.88;50.76;99124.97;4868853;29;20064;-91
2024/01/06 00:06:10;;;;;;;5.22;2.90;;;;;;;9.90;50.07;99118.22;4868806;29;19918;-95
2024/01/06 00:08:38;;;;;;;6.65;4.30;;;;;;;10.00;48.77;99101.28;4853257;29;20033;-93
2024/01/06 00:11:04;;;;;;;9.00;3.40;;;;;;;10.10;49.58;99106.63;4868952;29;20040;-94
2024/01/06 00:13:29;;;;;;;6.95;4.28;;;;;;;10.06;48.62;99091.28;4867966;29;20113;-95
2024/01/06 00:15:56;;;;;;;4.35;2.53;;;;;;;10.18;48.61;99107.16;4852945;29;20051;-94
2024/01/06 00:18:21;;;;;;;4.90;2.03;;;;;;;10.40;47.31;99123.03;4868297;29;20110;-94
2024/01/06 00:20:47;;;;;;;3.67;1.88;;;;;;;10.45;48.00;99110.34;4852716;29;20040;-95
2024/01/06 00:23:14;;;;;;;3.92;2.03;;;;;;;10.48;47.32;99109.81;4868798;29;20128;-94
2024/01/06 00:25:40;;;;;;;4.22;1.75;;;;;;;10.62;47.19;99123.47;4867918;29;20468;-93
2024/01/06 00:28:09;;;;;;;6.03;2.20;;;;;;;10.59;47.65;99105.19;4867900;29;20046;-92
2024/01/06 00:30:35;;;;;;;4.90;2.38;;;;;;;10.64;48.66;99101.66;4868471;29;20041;-93
2024/01/06 00:33:03;;;;;;;6.15;2.53;;;;;;;10.64;47.97;99099.75;4852295;29;20039;-92
2024/01/06 00:35:32;;;;;;;3.67;2.25;;;;;;;10.64;47.42;99078.22;4883472;29;20036;-93
2024/01/06 00:38:00;;;;;;;3.97;2.20;;;;;;;10.77;47.41;99087.63;4853538;29;20112;-92
2024/01/06 00:40:26;;;;;;;4.07;2.30;;;;;;;10.75;47.51;99083.56;4853015;29;20056;-92
2024/01/06 00:42:51;;;;;;;3.63;1.90;;;;;;;10.79;47.28;99087.31;4868088;29;20605;-93
2024/01/06 00:45:17;;;;;;;3.85;2.10;;;;;;;10.68;47.74;99065.03;4852700;29;20119;-93
2024/01/06 00:47:46;;;;;;;6.45;2.08;;;;;;;10.79;47.47;99066.59;4853074;29;20037;-94
2024/01/06 00:50:11;;;;;;;2.50;1.67;;;;;;;10.77;47.97;99067.94;4853178;29;20510;-92
2024/01/06 00:52:37;;;;;;;3.55;1.48;;;;;;;10.68;48.67;99056.94;4852898;29;20048;-94
2024/01/06 00:55:04;;;;;;;4.30;1.70;;;;;;;10.75;47.31;99059.31;4867834;29;20040;-95
2024/01/06 00:57:30;;;;;;;2.83;1.60;;;;;;;10.74;48.04;99047.75;4853304;29;20037;-94
2024/01/06 00:59:56;;;;;;;3.67;1.50;;;;;;;10.72;48.33;99042.66;4868434;29;20083;-94
2024/01/06 01:02:26;;;;;;;2.38;1.48;;;;;;;10.78;47.01;99046.13;4852881;29;20036;-93
2024/01/06 01:04:53;;;;;;;3.00;1.30;;;;;;;10.82;48.14;99049.06;4853930;29;20081;-92
2024/01/06 01:07:18;;;;;;;2.83;1.40;;;;;;;10.74;47.28;99039.69;4868102;29;20068;-92
2024/01/06 01:09:45;;;;;;;2.70;1.30;;;;;;;10.72;48.09;99056.09;4868577;29;20045;-93
2024/01/06 01:12:13;;;;;;;2.15;1.40;;;;;;;10.66;47.41;99041.06;4882986;29;20041;-92
2024/01/06 01:14:41;;;;;;;2.35;1.30;;;;;;;10.71;47.19;99043.75;4852761;29;20117;-92
2024/01/06 01:17:07;;;;;;;2.35;1.20;;;;;;;10.55;48.41;99044.09;4868346;29;20040;-92
2024/01/06 01:19:32;;;;;;;6.90;1.50;;;;;;;10.53;47.51;99041.69;4852409;29;20040;-94
2024/01/06 01:22:00;;;;;;;4.55;1.35;;;;;;;10.57;48.34;99047.31;4852452;29;20400;-93
2024/01/06 01:24:30;;;;;;;4.03;2.13;;;;;;;10.55;48.08;99055.66;4867396;29;20052;-94
2024/01/06 01:26:55;;;;;;;2.08;1.30;;;;;;;10.50;48.25;99059.19;4868473;29;20044;-93
2024/01/06 01:29:22;;;;;;;1.95;1.10;;;;;;;10.43;48.91;99047.91;4851978;29;20100;-95
2024/01/06 01:31:48;;;;;;;2.38;1.30;;;;;;;10.50;48.26;99069.97;4883393;29;20037;-93
2024/01/06 01:34:14;;;;;;;2.22;1.10;;;;;;;10.36;48.27;99036.63;4853673;29;20148;-94
2024/01/06 01:36:40;;;;;;;2.72;1.52;;;;;;;10.35;48.88;99031.53;4870935;29;20089;-94
2024/01/06 01:39:06;;;;;;;4.05;1.48;;;;;;;10.28;49.92;99007.56;4855677;29;20048;-93
2024/01/06 01:41:32;;;;;;;4.43;1.77;;;;;;;10.21;51.25;98994.41;4869776;29;20037;-93
2024/01/06 01:43:58;;;;;;;3.70;1.67;;;;;;;10.26;50.50;99020.50;4870123;29;20136;-94
2024/01/06 01:46:28;;;;;;;5.85;1.35;;;;;;;10.17;51.39;98993.34;4870762;29;20122;-93
2024/01/06 01:48:55;;;;;;;2.10;1.35;;;;;;;10.13;50.38;99000.38;4854894;29;20041;-93
2024/01/06 01:51:21;;;;;;;2.58;1.50;;;;;;;10.12;49.12;98991.47;4869987;29;20036;-94
2024/01/06 01:53:47;;;;;;;2.45;1.42;;;;;;;10.18;48.14;98986.09;4854922;29;20218;-95
2024/01/06 01:56:12;;;;;;;2.70;1.55;;;;;;;10.24;48.13;99001.94;4854018;29;20127;-93
2024/01/06 01:58:38;;;;;;;9.65;2.13;;;;;;;10.32;48.82;99009.47;4855585;29;20029;-94
2024/01/06 02:01:04;;;;;;;5.05;1.52;;;;;;;10.35;47.82;99010.78;4854402;29;20059;-93
2024/01/06 02:03:31;;;;;;;2.45;1.10;;;;;;;10.41;47.96;99014.28;4869461;29;20037;-94
2024/01/06 02:05:58;;;;;;;2.42;1.20;;;;;;;10.47;47.90;99013.16;4870112;29;20044;-94
2024/01/06 02:08:23;;;;;;;3.60;1.60;;;;;;;10.52;48.17;99021.19;4854786;29;20397;-94
2024/01/06 02:10:49;;;;;;;9.60;1.75;;;;;;;10.49;48.01;99016.38;4854124;29;20038;-94
2024/01/06 02:13:15;;;;;;;3.80;1.27;;;;;;;10.38;48.13;98994.09;4869926;29;20143;-92
2024/01/06 02:15:40;;;;;;;3.33;1.30;;;;;;;10.49;47.42;99011.81;4869887;29;20518;-93
2024/01/06 02:18:06;;;;;;;2.70;1.23;;;;;;;10.43;47.54;98994.06;4855789;29;20480;-92
2024/01/06 02:20:32;;;;;;;2.85;1.42;;;;;;;10.47;47.67;98989.75;4869531;29;20040;-92
2024/01/06 02:23:00;;;;;;;2.72;1.50;;;;;;;10.45;48.40;98981.13;4870323;29;20044;-93
2024/01/06 02:25:29;;;;;;;2.60;1.30;;;;;;;10.48;48.46;98980.59;4855933;29;20100;-93
2024/01/06 02:27:55;;;;;;;8.15;2.03;;;;;;;10.41;48.37;98963.13;4870995;29;20415;-95
2024/01/06 02:30:21;;;;;;;2.05;1.30;;;;;;;10.50;47.53;98980.34;4869359;29;20048;-94
2024/01/06 02:32:49;;;;;;;1.98;1.15;;;;;;;10.44;47.29;98970.66;4885771;29;20033;-94
2024/01/06 02:35:15;;;;;;;1.30;1.10;;;;;;;10.51;47.30;98988.09;4853790;29;20044;-92
2024/01/06 02:37:41;;;;;;;4.68;1.40;;;;;;;10.55;47.64;98979.50;4855031;29;20551;-93
2024/01/06 02:40:09;;;;;;;2.47;1.27;;;;;;;10.45;47.94;98973.06;4870085;29;20041;-94
2024/01/06 02:42:34;;;;;;;2.55;1.20;;;;;;;10.42;48.48;98965.56;4884739;29;20104;-94
2024/01/06 02:45:01;;;;;;;2.22;1.30;;;;;;;10.63;47.30;98985.09;4854104;29;20041;-92
2024/01/06 02:47:27;;;;;;;3.53;1.20;;;;;;;10.52;48.03;98956.59;4853001;29;20088;-94
2024/01/06 02:49:53;;;;;;;4.25;1.35;;;;;;;10.48;47.89;98953.69;4868974;29;20522;-94
2024/01/06 02:52:19;;;;;;;1.63;1.25;;;;;;;10.59;47.37;98964.38;4869608;29;20048;-95
2024/01/06 02:54:44;;;;;;;3.60;1.40;;;;;;;10.61;47.71;98954.94;4853788;29;20116;-93
2024/01/06 02:57:13;;;;;;;3.47;1.55;;;;;;;10.55;48.48;98949.88;4854594;29;20480;-93
2024/01/06 02:59:38;;;;;;;3.55;1.42;;;;;;;10.59;48.87;98959.00;4854716;29;20149;-92
2024/01/06 03:02:04;;;;;;;2.75;1.30;;;;;;;10.52;48.71;98964.69;4853203;29;20049;-93
2024/01/06 03:04:30;;;;;;;3.20;1.40;;;;;;;10.63;48.66;98979.69;4854440;29;20094;-93
2024/01/06 03:06:57;;;;;;;2.40;1.20;;;;;;;10.51;48.97;98952.31;4869320;29;20511;-95
2024/01/06 03:09:23;;;;;;;1.45;1.00;;;;;;;10.51;49.46;98968.47;4854377;29;20080;-92
2024/01/06 03:11:48;;;;;;;2.92;1.55;;;;;;;10.44;48.47;98965.28;4853495;29;20097;-94
2024/01/06 03:14:15;;;;;;;4.38;1.35;;;;;;;10.53;48.48;98990.53;4868675;29;20591;-95
2024/01/06 03:16:41;;;;;;;3.90;1.50;;;;;;;10.43;49.66;98974.44;4854847;29;20039;-95
2024/01/06 03:19:06;;;;;;;5.82;2.35;;;;;;;10.35;48.97;98958.84;4853985;29;20029;-92
2024/01/06 03:21:33;;;;;;;2.63;1.35;;;;;;;10.39;49.00;98971.47;4853054;29;20036;-93
2024/01/06 03:24:00;;;;;;;2.78;1.20;;;;;;;10.56;49.51;98994.53;4868802;29;20067;-94
2024/01/06 03:26:25;;;;;;;3.13;1.30;;;;;;;10.43;50.80;98977.13;4852441;29;20063;-93
2024/01/06 03:28:51;;;;;;;5.32;1.40;;;;;;;10.45;50.82;98983.03;4852871;29;20033;-93
2024/01/06 03:31:17;;;;;;;1.92;1.00;;;;;;;10.42;51.13;98970.16;4852657;29;20040;-93
2024/01/06 03:33:44;;;;;;;3.63;1.38;;;;;;;10.39;51.50;98986.81;4868765;29;20491;-93
2024/01/06 03:36:16;;;;;;;2.97;1.50;;;;;;;10.36;52.16;98976.63;4868404;29;20040;-93
2024/01/06 03:38:42;;;;;;;2.92;1.30;;;;;;;10.46;51.75;98987.34;4883993;29;20036;-93
2024/01/06 03:41:08;;;;;;;4.63;1.48;;;;;;;10.44;52.15;98989.50;4852257;29;20031;-94
2024/01/06 03:43:34;;;;;;;4.43;1.10;;;;;;;10.43;52.27;98986.00;4868811;29;20037;-94
2024/01/06 03:46:01;;;;;;;4.60;1.10;;;;;;;10.55;52.65;98996.44;4884167;29;20032;-94
2024/01/06 03:48:27;;;;;;;1.65;1.10;;;;;;;10.56;52.64;98995.34;4853022;29;20036;-94
2024/01/06 03:50:54;;;;;;;1.77;1.23;;;;;;;10.47;52.61;98978.19;4884083;29;20037;-93
2024/01/06 03:53:19;;;;;;;8.00;1.38;;;;;;;10.59;52.98;99002.88;4852246;29;20100;-93
2024/01/06 03:55:45;;;;;;;6.35;1.35;;;;;;;10.53;53.88;98990.53;4852909;29;20079;-93
2024/01/06 03:58:11;;;;;;;2.75;1.40;;;;;;;10.48;53.99;98988.66;4867611;29;20029;-93
2024/01/06 04:00:36;;;;;;;4.15;1.60;;;;;;;10.41;54.01;98979.28;4852337;29;20143;-94
2024/01/06 04:03:04;;;;;;;1.85;1.20;;;;;;;10.59;53.90;98999.38;4852945;29;20150;-94
2024/01/06 04:05:30;;;;;;;4.03;1.25;;;;;;;10.49;53.80;98984.88;4868013;29;20033;-92
2024/01/06 04:07:58;;;;;;;6.60;1.50;;;;;;;10.45;54.14;98989.22;4869103;29;20032;-93
2024/01/06 04:10:24;;;;;;;3.28;1.40;;;;;;;10.47;54.01;98984.34;4853180;29;20075;-93
2024/01/06 04:12:51;;;;;;;2.50;1.40;;;;;;;10.42;54.00;98981.72;4867439;29;20044;-94
2024/01/06 04:15:16;;;;;;;1.90;1.17;;;;;;;10.54;54.04;99000.19;4867732;29;20071;-92
2024/01/06 04:17:42;;;;;;;3.00;1.20;;;;;;;10.43;53.96;98990.56;4852537;29;20037;-92
2024/01/06 04:20:12;;;;;;;3.58;1.40;;;;;;;10.40;53.71;98973.09;4883109;29;20033;-92
2024/01/06 04:22:38;;;;;;;2.65;1.33;;;;;;;10.44;54.30;98981.44;4868372;29;20064;-93
2024/01/06 04:25:04;;;;;;;5.57;1.45;;;;;;;10.45;54.17;98993.78;4852388;29;20043;-93
2024/01/06 04:27:30;;;;;;;2.67;1.40;;;;;;;10.40;54.13;98991.16;4851785;29;20037;-93
2024/01/06 04:29:57;;;;;;;2.53;1.13;;;;;;;10.40;54.31;98989.25;4868199;29;20036;-92
2024/01/06 04:32:22;;;;;;;2.22;1.13;;;;;;;10.48;54.05;99007.50;4866491;29;20063;-93
2024/01/06 04:34:48;;;;;;;4.50;1.65;;;;;;;10.37;54.32;98987.09;4852155;29;20033;-92
2024/01/06 04:37:14;;;;;;;6.25;1.65;;;;;;;10.47;54.49;99000.50;4851985;29;20029;-92
2024/01/06 04:39:40;;;;;;;2.15;1.10;;;;;;;10.40;54.53;98994.63;4882347;29;20036;-92
2024/01/06 04:42:06;;;;;;;6.50;1.58;;;;;;;10.36;54.51;98988.19;4851864;29;20048;-93
2024/01/06 04:44:32;;;;;;;3.60;1.27;;;;;;;10.50;54.45;99010.75;4882950;29;20044;-92
2024/01/06 04:46:57;;;;;;;3.40;1.20;;;;;;;10.46;54.58;99014.25;4851896;29;20037;-92
2024/01/06 04:49:23;;;;;;;2.00;1.10;;;;;;;10.38;54.41;98990.63;4851727;29;20032;-92
2024/01/06 04:51:48;;;;;;;5.47;1.40;;;;;;;10.41;54.59;99006.19;4851749;29;20043;-92
2024/01/06 04:54:14;;;;;;;2.30;1.38;;;;;;;10.52;54.62;99031.97;4852453;29;20043;-93
2024/01/06 04:56:40;;;;;;;3.25;1.52;;;;;;;10.39;54.72;99013.75;4851547;29;20037;-92
2024/01/06 04:59:06;;;;;;;3.20;1.30;;;;;;;10.43;54.65;99026.38;4882691;29;20036;-93
2024/01/06 05:01:33;;;;;;;3.40;1.45;;;;;;;10.34;54.55;99011.88;4852116;29;20040;-92
2024/01/06 05:03:59;;;;;;;1.95;1.10;;;;;;;10.34;54.76;99003.00;4866426;29;20104;-93
2024/01/06 05:06:27;;;;;;;2.00;1.25;;;;;;;10.34;54.80;99008.41;4852058;29;20041;-93
2024/01/06 05:08:52;;;;;;;2.38;1.38;;;;;;;10.36;54.99;99022.38;4867405;29;20040;-93
2024/01/06 05:11:18;;;;;;;2.70;1.40;;;;;;;10.36;55.81;99014.31;4854961;29;20050;-92
2024/01/06 05:13:43;;;;;;;2.67;1.10;;;;;;;10.36;55.32;99019.69;4855906;29;20052;-93
2024/01/06 05:16:09;;;;;;;3.75;1.60;;;;;;;10.29;55.41;99012.72;4855814;29;20036;-92
2024/01/06 05:18:34;;;;;;;4.13;1.35;;;;;;;10.37;54.97;99026.66;4855643;29;20037;-92
2024/01/06 05:21:00;;;;;;;6.35;1.40;;;;;;;10.27;55.29;99004.09;4856162;29;20043;-92
2024/01/06 05:23:26;;;;;;;5.43;1.60;;;;;;;10.35;55.09;99021.56;4855472;29;20040;-92
2024/01/06 05:25:52;;;;;;;2.72;1.42;;;;;;;10.26;55.11;99004.34;4855306;29;20123;-92
2024/01/06 05:28:17;;;;;;;3.55;1.58;;;;;;;10.26;54.81;99005.16;4870827;29;20044;-92
2024/01/06 05:30:43;;;;;;;3.15;1.67;;;;;;;10.35;55.05;99007.28;4856353;29;20032;-91
2024/01/06 05:33:13;;;;;;;3.17;2.00;;;;;;;10.31;54.93;98996.28;4855539;29;20379;-93
2024/01/06 05:35:39;;;;;;;2.00;1.45;;;;;;;10.35;54.85;98991.16;4855743;29;20044;-93
2024/01/06 05:38:04;;;;;;;2.17;1.45;;;;;;;10.41;54.66;98998.13;4855225;29;20063;-92
2024/01/06 05:40:32;;;;;;;6.85;2.20;;;;;;;10.54;54.85;99018.25;4872148;29;20043;-91
2024/01/06 05:43:01;;;;;;;5.20;1.73;;;;;;;10.40;54.64;99004.59;4856064;29;20044;-92
2024/01/06 05:45:29;;;;;;;5.00;2.42;;;;;;;10.54;54.71;99021.72;4853690;29;20413;-93
2024/01/06 05:47:56;;;;;;;2.85;1.40;;;;;;;10.44;54.88;98998.38;4867780;29;20044;-93
2024/01/06 05:50:22;;;;;;;3.30;1.55;;;;;;;10.53;54.37;99009.38;4848631;29;20499;-94
2024/01/06 05:52:51;;;;;;;3.78;1.30;;;;;;;10.61;54.67;99013.38;4870673;29;20131;-92
2024/01/06 05:55:17;;;;;;;3.90;2.00;;;;;;;10.68;54.57;99011.16;4870426;29;20069;-92
2024/01/06 05:57:45;;;;;;;3.67;1.67;;;;;;;10.58;54.52;98995.06;4869935;29;20025;-92
2024/01/06 06:00:11;;;;;;;2.28;1.60;;;;;;;10.50;55.22;98989.19;4886354;29;20036;-92
2024/01/06 06:02:38;;;;;;;2.83;1.70;;;;;;;10.56;54.53;98991.84;4855359;29;20388;-90
2024/01/06 06:05:06;;;;;;;7.00;1.63;;;;;;;10.62;54.52;98996.13;4885053;29;20040;-92
2024/01/06 06:07:32;;;;;;;5.75;2.70;;;;;;;10.78;54.53;98999.53;4870297;29;20032;-92
2024/01/06 06:09:57;;;;;;;75.47;39.67;;;;;;;10.65;54.37;98980.22;4885918;29;20483;-92
2024/01/06 06:12:23;;;;;;;7.95;3.35;;;;;;;10.76;54.33;98983.66;4855172;29;20033;-92
2024/01/06 06:14:52;;;;;;;3.90;1.75;;;;;;;10.87;54.62;98998.69;4852990;29;20055;-93
2024/01/06 06:17:18;;;;;;;3.30;1.85;;;;;;;10.91;54.45;98996.22;4855176;29;20033;-94
2024/01/06 06:19:44;;;;;;;3.30;1.80;;;;;;;10.84;54.19;98983.06;4870900;29;20040;-92
2024/01/06 06:22:10;;;;;;;5.35;2.30;;;;;;;10.89;54.51;98985.75;4854346;29;20518;-94
2024/01/06 06:24:35;;;;;;;10.77;2.28;;;;;;;11.06;54.52;99004.22;4855019;29;20118;-93
2024/01/06 06:27:01;;;;;;;3.75;1.80;;;;;;;10.97;54.47;98984.31;4870207;29;20101;-93
2024/01/06 06:29:29;;;;;;;7.70;4.93;;;;;;;11.07;54.70;99005.00;4854939;29;20559;-92
2024/01/06 06:31:55;;;;;;;10.27;4.57;;;;;;;11.02;54.59;98989.69;4856088;29;20472;-92
2024/01/06 06:34:21;;;;;;;13.23;8.77;;;;;;;10.98;54.18;98980.56;4870556;29;20117;-92
2024/01/06 06:36:46;;;;;;;9.63;5.00;;;;;;;11.04;55.08;98994.78;4870159;29;20036;-93
2024/01/06 06:39:12;;;;;;;10.75;4.30;;;;;;;11.08;54.27;98988.56;4854979;29;20032;-92
2024/01/06 06:41:38;;;;;;;6.45;4.30;;;;;;;11.07;53.96;98983.44;4854984;29;20423;-94
2024/01/06 06:44:05;;;;;;;6.15;2.47;;;;;;;11.11;53.58;98977.22;4855454;29;20472;-93
2024/01/06 06:46:31;;;;;;;7.57;2.70;;;;;;;11.13;53.85;98966.16;4856524;29;20036;-92
2024/01/06 06:49:16;;;;;;;9.88;4.57;;;;;;;11.15;53.83;98957.81;4870849;29;20479;-93
2024/01/06 06:51:46;;;;;;;41.08;21.98;;;;;;;11.17;54.46;98977.19;4891878;29;20033;-93
2024/01/06 06:54:13;;;;;;;15.98;10.52;;;;;;;11.18;54.31;98966.09;4874887;29;20060;-94
2024/01/06 06:56:41;;;;;;;6.10;3.22;;;;;;;11.09;54.48;98957.84;4859080;29;20039;-95
2024/01/06 06:59:07;;;;;;;3.47;1.80;;;;;;;11.06;54.44;98963.78;4857933;29;20429;-94
2024/01/06 07:01:36;;;;;;;7.25;2.85;;;;;;;11.19;54.49;98973.13;4858288;29;20092;-93
2024/01/06 07:04:02;;;;;;;9.60;4.80;;;;;;;11.16;54.64;98957.50;4887931;29;20039;-94
2024/01/06 07:06:31;;;;;;;3.50;2.20;;;;;;;11.29;54.23;98958.75;4854988;29;20036;-93
2024/01/06 07:08:58;;;;;;;5.43;1.58;;;;;;;11.32;54.07;98961.66;4871137;29;20029;-93
2024/01/06 07:11:24;;;;;;;3.88;1.60;;;;;;;11.31;54.08;98949.31;4886343;29;20033;-94
2024/01/06 07:13:50;;;;;;;5.72;1.85;;;;;;;11.42;53.76;98950.00;4870288;29;20056;-92
2024/01/06 07:16:16;;;;;;;3.92;2.05;;;;;;;11.59;53.93;98964.94;4869930;29;20047;-93
2024/01/06 07:18:41;;;;;;;7.75;2.83;;;;;;;11.67;52.84;98965.13;4853747;29;20029;-91
2024/01/06 07:21:07;;;;;;;8.00;3.95;;;;;;;11.79;52.68;98963.94;4855597;29;20036;-92
2024/01/06 07:23:34;;;;;;;11.80;10.48;;;;;;;11.73;53.17;98952.38;4869879;29;20511;-91
2024/01/06 07:25:59;;;;;;;11.48;4.82;;;;;;;11.81;52.85;98951.75;4869760;29;20059;-95
2024/01/06 07:28:26;;;;;;;5.28;3.20;;;;;;;11.81;52.63;98946.38;4855487;29;20045;-95
2024/01/06 07:30:52;;;;;;;6.13;2.60;;;;;;;11.92;52.40;98947.88;4853969;29;20052;-94
2024/01/06 07:33:17;;;;;;;3.97;1.92;;;;;;;11.95;52.06;98941.09;4853988;29;20456;-93
2024/01/06 07:35:43;;;;;;;12.85;4.70;;;;;;;11.98;52.61;98945.13;4855375;29;20044;-95
2024/01/06 07:38:12;;;;;;;17.38;5.18;;;;;;;12.01;53.09;98958.84;4870996;29;20052;-95
2024/01/06 07:40:40;;;;;;;9.10;4.40;;;;;;;12.00;53.22;98949.16;4855328;29;20044;-95
2024/01/06 07:43:09;;;;;;;17.23;6.45;;;;;;;11.88;53.42;98925.25;4858814;29;20044;-94
2024/01/06 07:45:37;;;;;;;13.90;5.53;;;;;;;12.03;53.61;98948.56;4864596;29;20045;-95
2024/01/06 07:48:06;;;;;;;10.80;5.97;;;;;;;11.91;53.41;98929.28;4894958;29;20052;-95
2024/01/06 07:50:39;;;;;;;9.18;5.00;;;;;;;12.07;52.21;98948.78;4863948;29;20570;-95
2024/01/06 07:53:06;;;;;;;6.40;3.10;;;;;;;11.87;51.21;98917.41;4880807;29;20040;-93
2024/01/06 07:55:35;;;;;;;10.15;3.53;;;;;;;11.95;51.64;98927.59;4880060;29;20040;-94
2024/01/06 07:58:01;;;;;;;7.07;2.50;;;;;;;12.06;50.43;98937.19;4887792;29;20036;-95
2024/01/06 08:00:27;;;;;;;3.63;1.48;;;;;;;12.05;49.71;98929.38;4856302;29;20036;-96
2024/01/06 08:02:53;;;;;;;8.30;2.95;;;;;;;12.07;49.85;98938.78;4871129;29;20036;-95
2024/01/06 08:05:19;;;;;;;10.25;2.10;;;;;;;12.06;49.39;98923.72;4872088;29;20041;-95
2024/01/06 08:07:44;;;;;;;16.40;2.70;;;;;;;12.12;49.32;98929.84;4871853;29;20063;-94
2024/01/06 08:10:10;;;;;;;5.63;2.70;;;;;;;12.13;49.13;98926.84;4856515;29;20077;-94
2024/01/06 08:12:37;;;;;;;4.38;2.22;;;;;;;12.29;49.38;98937.47;4872390;29;20048;-95
2024/01/06 08:15:04;;;;;;;9.57;2.20;;;;;;;12.25;48.21;98922.94;4872262;29;20060;-94
2024/01/06 08:17:30;;;;;;;4.60;2.80;;;;;;;12.30;48.73;98926.34;4856891;29;20077;-94
2024/01/06 08:19:55;;;;;;;8.20;2.42;;;;;;;12.44;48.94;98948.03;4871685;29;20037;-90
2024/01/06 08:22:21;;;;;;;5.88;3.50;;;;;;;12.55;48.76;98948.69;4877031;29;20041;-93
2024/01/06 08:24:47;;;;;;;10.02;3.15;;;;;;;12.56;48.46;98942.22;4853776;29;20036;-93
2024/01/06 08:27:13;;;;;;;6.45;2.50;;;;;;;12.63;48.20;98934.53;4853810;29;20044;-93
2024/01/06 08:29:39;;;;;;;5.68;1.73;;;;;;;12.71;47.74;98955.47;4869880;29;20480;-93
2024/01/06 08:32:05;;;;;;;3.83;1.73;;;;;;;12.72;46.93;98943.59;4872107;29;20041;-93
2024/01/06 08:34:31;;;;;;;5.53;2.00;;;;;;;12.88;47.70;98948.75;4868754;29;20495;-95
2024/01/06 08:36:57;;;;;;;5.40;1.75;;;;;;;12.88;47.79;98946.06;4854090;29;20037;-96
2024/01/06 08:39:25;;;;;;;6.88;2.47;;;;;;;12.95;47.18;98930.28;4855246;29;20045;-93
2024/01/06 08:41:50;;;;;;;5.93;1.85;;;;;;;12.95;47.42;98911.38;4886175;29;20040;-93
2024/01/06 08:44:16;;;;;;;3.92;1.73;;;;;;;13.09;47.81;98935.72;4854137;29;20047;-96
2024/01/06 08:46:42;;;;;;;3.78;2.10;;;;;;;13.19;47.45;98927.44;4868425;29;20048;-94
2024/01/06 08:49:08;;;;;;;5.38;1.88;;;;;;;13.25;47.75;98914.66;4851409;29;20037;-92
2024/01/06 08:51:35;;;;;;;13.88;3.20;;;;;;;13.19;48.12;98896.91;4869984;29;20040;-96
2024/01/06 08:54:04;;;;;;;18.23;5.68;;;;;;;13.36;47.51;98913.38;4854517;29;20045;-95
2024/01/06 08:56:30;;;;;;;19.45;6.65;;;;;;;13.40;47.82;98908.97;4855902;29;20045;-96
2024/01/06 08:58:57;;;;;;;11.13;5.35;;;;;;;13.34;48.45;98910.16;4869404;29;20068;-94
2024/01/06 09:01:22;;;;;;;15.82;5.38;;;;;;;13.40;49.31;98914.38;4854068;29;20119;-95
2024/01/06 09:03:49;;;;;;;6.85;2.65;;;;;;;13.28;48.66;98887.81;4856950;29;20055;-93
2024/01/06 09:06:15;;;;;;;6.18;2.17;;;;;;;13.43;49.19;98916.50;4853993;29;20064;-93
2024/01/06 09:08:43;;;;;;;7.22;2.10;;;;;;;13.46;48.96;98909.69;4852709;29;20047;-94
2024/01/06 09:11:12;;;;;;;6.20;2.13;;;;;;;13.43;49.18;98885.97;4867780;29;20071;-93
2024/01/06 09:13:37;;;;;;;3.97;2.03;;;;;;;13.46;49.38;98894.25;4882053;29;20049;-91
2024/01/06 09:16:04;;;;;;;4.18;1.67;;;;;;;13.45;49.46;98878.34;4852010;29;20036;-92
2024/01/06 09:18:30;;;;;;;6.45;1.90;;;;;;;13.51;49.43;98882.56;4867343;29;20033;-93
2024/01/06 09:20:56;;;;;;;4.85;1.70;;;;;;;13.63;49.51;98882.06;4844034;29;20051;-93
2024/01/06 09:23:22;;;;;;;4.68;1.70;;;;;;;13.71;49.45;98884.06;4852479;29;20045;-92
2024/01/06 09:25:52;;;;;;;9.82;2.63;;;;;;;13.85;49.28;98876.75;4814950;29;20041;-92
2024/01/06 09:28:17;;;;;;;4.60;2.00;;;;;;;13.71;49.27;98862.41;4842413;29;20041;-91
2024/01/06 09:30:43;;;;;;;7.60;3.65;;;;;;;13.81;49.47;98861.41;4833414;29;20053;-92
2024/01/06 09:33:09;;;;;;;12.82;2.67;;;;;;;13.98;49.90;98866.19;4847845;29;20045;-92
2024/01/06 09:35:34;;;;;;;7.68;2.28;;;;;;;13.99;49.47;98854.28;4832971;29;20044;-92
2024/01/06 09:38:00;;;;;;;6.03;2.00;;;;;;;14.26;49.49;98873.16;4833381;29;20037;-92
2024/01/06 09:40:29;;;;;;;10.18;3.72;;;;;;;14.34;49.43;98866.22;4838387;29;20049;-91
2024/01/06 09:42:55;;;;;;;11.02;4.80;;;;;;;14.33;49.17;98845.66;4853787;29;20052;-93
2024/01/06 09:45:21;;;;;;;7.68;2.60;;;;;;;14.33;49.48;98841.03;4847058;29;20137;-95
2024/01/06 09:47:53;;;;;;;5.07;1.67;;;;;;;14.41;49.84;98873.94;4848383;29;20067;-93
2024/01/06 09:50:22;;;;;;;5.85;3.03;;;;;;;14.42;49.72;98851.97;4835452;29;20045;-93
2024/01/06 09:52:56;;;;;;;6.88;2.13;;;;;;;14.54;49.50;98854.91;4864771;29;20419;-92
2024/01/06 09:55:27;;;;;;;6.18;2.70;;;;;;;14.62;49.87;98845.28;4864591;29;20072;-93
2024/01/06 09:57:56;;;;;;;3.50;1.83;;;;;;;14.46;49.92;98822.31;4851792;29;20045;-93
2024/01/06 10:00:24;;;;;;;4.30;2.08;;;;;;;14.60;49.83;98833.16;4856051;29;20116;-92
2024/01/06 10:03:00;;;;;;;7.82;2.47;;;;;;;14.75;50.02;98836.28;4855604;29;20082;-93
2024/01/06 10:05:27;;;;;;;5.50;2.53;;;;;;;14.61;50.28;98824.72;4856602;29;20109;-93
2024/01/06 10:07:56;;;;;;;9.68;3.05;;;;;;;14.51;49.90;98801.34;4852981;29;20052;-93
2024/01/06 10:10:22;;;;;;;13.73;3.40;;;;;;;14.50;50.06;98805.16;4851748;29;20041;-93
2024/01/06 10:12:48;;;;;;;12.30;5.00;;;;;;;14.60;49.98;98796.00;4851874;29;20127;-93
2024/01/06 10:15:13;;;;;;;8.48;3.80;;;;;;;14.63;49.87;98781.03;4852525;29;20057;-93
2024/01/06 10:18:02;;;;;;;7.53;2.65;;;;;;;14.87;49.36;98781.50;4832829;29;20080;-93
2024/01/06 10:20:47;;;;;;;5.82;2.45;;;;;;;14.76;49.20;98772.03;4797002;29;20113;-96
2024/01/06 10:23:13;;;;;;;4.82;3.15;;;;;;;14.83;49.06;98785.13;4812614;29;20038;-96
2024/01/06 10:25:42;;;;;;;13.55;5.35;;;;;;;14.82;48.84;98773.50;4796313;29;20046;-93
2024/01/06 10:28:14;;;;;;;8.02;2.72;;;;;;;14.66;49.62;98762.25;4811943;29;20042;-95
2024/01/06 10:30:40;;;;;;;3.75;2.00;;;;;;;14.75;48.99;98759.59;4783800;29;20422;-95
2024/01/06 10:33:10;;;;;;;8.05;2.88;;;;;;;14.91;49.18;98755.38;4810450;29;20402;-92
2024/01/06 10:35:45;;;;;;;2.78;1.90;;;;;;;14.79;49.53;98729.97;4799229;29;20728;-94
2024/01/06 10:38:15;;;;;;;7.07;2.60;;;;;;;14.91;49.17;98732.88;4784309;29;20043;-94
2024/01/06 10:41:09;;;;;;;6.13;2.40;;;;;;;14.95;49.12;98736.56;4782910;29;20042;-93
2024/01/06 10:43:43;;;;;;;5.13;1.60;;;;;;;14.95;49.10;98731.16;4816560;29;20116;-96
2024/01/06 10:46:17;;;;;;;6.43;2.20;;;;;;;15.05;49.45;98746.34;4798922;29;20471;-96
2024/01/06 10:48:45;;;;;;;8.70;3.15;;;;;;;15.18;49.24;98750.06;4799688;29;20038;-94
2024/01/06 10:51:16;;;;;;;4.30;1.67;;;;;;;15.01;49.59;98731.81;4824918;29;20037;-93
2024/01/06 10:53:41;;;;;;;8.20;1.97;;;;;;;15.04;49.52;98728.47;4838458;29;20041;-93
2024/01/06 10:56:13;;;;;;;2.80;1.30;;;;;;;14.91;50.14;98728.25;4851590;29;20043;-93
2024/01/06 10:58:47;;;;;;;4.95;1.70;;;;;;;15.01;50.23;98729.09;4838999;29;20037;-95
2024/01/06 11:01:14;;;;;;;4.38;1.50;;;;;;;14.98;50.29;98716.16;4838240;29;20142;-96
2024/01/06 11:03:40;;;;;;;18.35;4.78;;;;;;;15.04;50.37;98723.03;4838129;29;20036;-93
2024/01/06 11:06:11;;;;;;;11.05;4.03;;;;;;;15.16;50.27;98734.88;4867354;29;20511;-93
2024/01/06 11:08:49;;;;;;;3.70;1.88;;;;;;;14.95;50.85;98715.66;4852504;29;20060;-94
2024/01/06 11:11:19;;;;;;;4.35;1.70;;;;;;;15.09;51.39;98750.03;4856704;29;20060;-94
2024/01/06 11:13:47;;;;;;;2.03;1.45;;;;;;;15.03;51.12;98730.38;4837482;29;20053;-92
2024/01/06 11:16:34;;;;;;;6.32;2.00;;;;;;;15.06;51.32;98721.59;4837155;29;20041;-95
2024/01/06 11:19:00;;;;;;;6.13;1.77;;;;;;;14.97;51.62;98720.78;4868388;29;20044;-94
2024/01/06 11:21:33;;;;;;;4.88;1.90;;;;;;;14.90;51.84;98717.72;4837211;29;20071;-94
2024/01/06 11:24:16;;;;;;;4.95;2.03;;;;;;;15.05;52.09;98727.38;4851668;29;20033;-95
2024/01/06 11:26:43;;;;;;;4.75;1.88;;;;;;;15.01;51.73;98716.34;4851670;29;20120;-95
2024/01/06 11:29:11;;;;;;;4.35;2.10;;;;;;;15.06;51.62;98718.91;4836175;29;20040;-94
2024/01/06 11:31:38;;;;;;;5.80;1.92;;;;;;;15.05;51.67;98703.75;4836221;29;20128;-93